Portada
METAR-TAF:

METAR-TAF

Aeropuertos :

Fairfield Municipal Airport

Fairfield, Iowa, Estados Unidos

latitud: 41-03N, longitud: 091-59W, altitud: 244 m

Observación

El informe se hizo hace 29 minutos, a las 20:35 UTC
Viento calma
Temperatura 27°C
Humedad 58%
Presión 1022 hPa
Visibilidad: 16.1 km
Cielo nuboso a una altura de 4800 ft
Cielo nuboso a una altura de 5500 ft

METAR: KFFL 192035Z AUTO 00000KT 10SM BKN048 BKN055 27/18 A3019 RMK A01

Hora: 16:04 (21:04 UTC)


TAF: falta

Observaciones y pronósticos meteorológicos de más de 4000 aeropuertos (mensajes METAR y TAF).

Los puntos amarillos y rojos representan las estaciones disponibles.

Ponga el ratón en el punto deseado para ver el nombre de la estación.

Haga clic para ver las observaciones y los pronósticos meteorológicos.

Para cambiar el mapa : haga clic en los botones verdes con una cruz de color negro para hacer un zoom, en el botón verde con un guión para alejar o en las flechas verdes para mapas adyacentes.


METAR-TAF: